Time;durP1;ratioP1;P1;durP2;ratioP2;P2;SDS_P1;SDS_P2;PMS_P1;PMS_P2;Temp;Humidity;BMP_temperature;BMP_pressure;BME280_temperature;BME280_humidity;BME280_pressure;Samples;Min_cycle;Max_cycle;Signal;HPM_P1;HPM_P2
2022/01/03 00:01:55;;;;;;;6.97;1.93;;;13.10;99.90;;;;;;4999900;28;20701;-71
2022/01/03 00:04:24;;;;;;;4.33;1.47;;;13.10;99.90;;;;;;5001612;28;20587;-71
2022/01/03 00:06:51;;;;;;;3.20;2.07;;;13.10;99.90;;;;;;5000447;28;20627;-70
2022/01/03 00:09:17;;;;;;;5.33;1.70;;;13.10;99.90;;;;;;5000779;28;20617;-70
2022/01/03 00:11:45;;;;;;;8.60;2.13;;;13.10;99.90;;;;;;4999927;28;20695;-71
2022/01/03 00:14:11;;;;;;;4.60;2.03;;;13.10;99.90;;;;;;5000823;28;20613;-71
2022/01/03 00:16:38;;;;;;;7.60;1.77;;;13.10;99.90;;;;;;4999628;28;20657;-71
2022/01/03 00:19:04;;;;;;;6.20;2.10;;;13.20;99.90;;;;;;4999127;28;21163;-71
2022/01/03 00:21:40;;;;;;;6.57;2.00;;;13.10;99.90;;;;;;4999252;28;20641;-71
2022/01/03 00:24:09;;;;;;;3.50;1.87;;;13.10;99.90;;;;;;4999124;28;20988;-70
2022/01/03 00:26:37;;;;;;;6.80;2.33;;;13.10;99.90;;;;;;4998649;28;20610;-71
2022/01/03 00:29:18;;;;;;;8.50;1.97;;;13.20;99.90;;;;;;4999142;28;21164;-71
2022/01/03 00:31:45;;;;;;;4.50;1.80;;;13.10;99.90;;;;;;4998888;28;21310;-72
2022/01/03 00:34:14;;;;;;;3.93;2.00;;;13.10;99.90;;;;;;4998582;28;20628;-70
2022/01/03 00:36:43;;;;;;;6.30;2.73;;;13.00;99.90;;;;;;4998507;28;20658;-71
2022/01/03 00:39:10;;;;;;;4.20;1.87;;;13.10;99.90;;;;;;4998015;28;20614;-71
2022/01/03 00:41:38;;;;;;;8.70;2.90;;;13.00;99.90;;;;;;4997654;28;20980;-71
2022/01/03 00:44:05;;;;;;;4.63;1.60;;;13.00;99.90;;;;;;4997829;28;20648;-71
2022/01/03 00:46:33;;;;;;;4.20;1.73;;;13.10;99.90;;;;;;4997934;28;20630;-71
2022/01/03 00:49:02;;;;;;;4.00;1.53;;;13.00;99.90;;;;;;4997650;28;20695;-71
2022/01/03 00:51:28;;;;;;;6.67;2.27;;;12.90;99.90;;;;;;4997620;28;20654;-71
2022/01/03 00:53:55;;;;;;;8.40;1.83;;;13.00;99.90;;;;;;4997168;28;20610;-71
2022/01/03 00:56:29;;;;;;;4.87;1.67;;;13.00;99.90;;;;;;4997144;28;20688;-71
2022/01/03 00:59:03;;;;;;;8.20;2.17;;;13.00;99.90;;;;;;4997468;28;20630;-72
2022/01/03 01:01:34;;;;;;;7.67;2.23;;;12.90;99.90;;;;;;4997511;28;20578;-71
2022/01/03 01:04:02;;;;;;;5.97;2.20;;;12.90;99.90;;;;;;4997661;28;20640;-73
2022/01/03 01:06:33;;;;;;;4.63;2.00;;;12.90;99.90;;;;;;4997447;28;20726;-71
2022/01/03 01:09:03;;;;;;;6.33;1.57;;;12.90;99.90;;;;;;4997241;28;20578;-71
2022/01/03 01:11:30;;;;;;;4.78;1.80;;;12.90;99.90;;;;;;4997160;28;20593;-71
2022/01/03 01:13:58;;;;;;;5.37;2.00;;;12.80;99.90;;;;;;4997577;28;20562;-72
2022/01/03 01:16:25;;;;;;;4.20;1.53;;;12.80;99.90;;;;;;4997140;28;20780;-71
2022/01/03 01:18:52;;;;;;;7.45;2.17;;;12.80;99.90;;;;;;4997242;28;20588;-73
2022/01/03 01:21:19;;;;;;;8.77;2.20;;;12.80;99.90;;;;;;4996701;28;20242;-71
2022/01/03 01:23:48;;;;;;;4.13;2.23;;;12.80;99.90;;;;;;4996501;28;20202;-71
2022/01/03 01:29:04;;;;;;;5.50;1.98;;;12.80;99.90;;;;;;4996982;28;20183;-70
2022/01/03 01:31:34;;;;;;;6.53;1.65;;;12.70;99.90;;;;;;4978786;28;20218;-71
2022/01/03 01:34:05;;;;;;;8.53;2.47;;;12.70;99.90;;;;;;4996576;28;20194;-71
2022/01/03 01:36:33;;;;;;;3.90;2.13;;;12.70;99.90;;;;;;4996392;28;20612;-71
2022/01/03 01:39:06;;;;;;;6.83;1.70;;;12.70;99.90;;;;;;4996545;28;20597;-71
2022/01/03 01:41:38;;;;;;;3.50;1.50;;;12.70;99.90;;;;;;4996703;28;20645;-72
2022/01/03 01:44:08;;;;;;;7.28;2.45;;;12.70;99.90;;;;;;4996872;28;20637;-72
2022/01/03 01:46:43;;;;;;;7.13;2.43;;;12.60;99.90;;;;;;4997494;28;20202;-72
2022/01/03 01:49:16;;;;;;;9.60;2.10;;;12.60;99.90;;;;;;4997640;28;20583;-71
2022/01/03 01:51:46;;;;;;;3.93;1.70;;;12.60;99.90;;;;;;4997832;28;20198;-70
2022/01/03 01:54:15;;;;;;;8.23;2.05;;;12.50;99.90;;;;;;4997322;28;20619;-71
2022/01/03 01:57:06;;;;;;;4.57;2.07;;;12.50;99.90;;;;;;4997538;28;20222;-71
2022/01/03 02:00:07;;;;;;;4.43;1.77;;;12.50;99.90;;;;;;4998619;28;20606;-70
2022/01/03 02:03:00;;;;;;;4.25;2.20;;;12.50;99.90;;;;;;4980800;28;20199;-72
2022/01/03 02:05:42;;;;;;;3.63;1.85;;;12.50;99.90;;;;;;4997284;28;20290;-70
2022/01/03 02:08:13;;;;;;;7.70;2.20;;;12.50;99.90;;;;;;4997080;28;20195;-72
2022/01/03 02:11:04;;;;;;;8.00;2.20;;;12.50;99.90;;;;;;4997125;28;21254;-70
2022/01/03 02:13:33;;;;;;;6.47;2.30;;;12.40;99.90;;;;;;4996933;28;20689;-72
2022/01/03 02:16:03;;;;;;;6.13;2.03;;;12.40;99.90;;;;;;4996381;28;20600;-70
2022/01/03 02:18:31;;;;;;;13.70;3.20;;;12.40;99.90;;;;;;4996931;28;20692;-72
2022/01/03 02:20:58;;;;;;;5.87;2.53;;;12.40;99.90;;;;;;4998039;28;20699;-69
2022/01/03 02:23:25;;;;;;;6.37;2.73;;;12.40;99.90;;;;;;4996959;28;20621;-70
2022/01/03 02:25:51;;;;;;;6.73;2.17;;;12.30;99.90;;;;;;4997400;28;20592;-70
2022/01/03 02:28:20;;;;;;;5.57;1.97;;;12.30;99.90;;;;;;4996901;28;20609;-69
2022/01/03 02:30:47;;;;;;;5.00;2.17;;;12.40;99.90;;;;;;4996082;28;20716;-69
2022/01/03 02:33:13;;;;;;;6.57;2.30;;;12.30;99.90;;;;;;4996603;28;20986;-70
2022/01/03 02:35:42;;;;;;;3.13;2.10;;;12.30;99.90;;;;;;4996762;28;20640;-70
2022/01/03 02:38:09;;;;;;;7.30;1.87;;;12.30;99.90;;;;;;4979215;28;21236;-70
2022/01/03 02:40:36;;;;;;;9.27;2.00;;;12.40;99.90;;;;;;4978444;28;21169;-70
2022/01/03 02:43:03;;;;;;;5.83;1.53;;;12.30;99.90;;;;;;4996571;28;20592;-70
2022/01/03 02:45:30;;;;;;;4.80;2.40;;;12.30;99.90;;;;;;4994558;28;20622;-72
2022/01/03 02:47:59;;;;;;;5.47;2.00;;;12.20;99.90;;;;;;4995196;28;20972;-71
2022/01/03 02:50:28;;;;;;;13.30;1.93;;;12.20;99.90;;;;;;4995295;28;21156;-69
2022/01/03 02:52:55;;;;;;;5.00;1.80;;;12.20;99.90;;;;;;4994948;28;20607;-70
2022/01/03 02:55:23;;;;;;;3.37;2.03;;;12.20;99.90;;;;;;4994639;28;21011;-70
2022/01/03 02:57:52;;;;;;;7.63;2.40;;;12.20;99.90;;;;;;4994912;28;20661;-70
2022/01/03 03:00:28;;;;;;;10.20;1.87;;;12.20;99.90;;;;;;4993685;28;20597;-70
2022/01/03 03:02:55;;;;;;;5.73;2.30;;;12.30;99.90;;;;;;4977430;28;21250;-71
2022/01/03 03:05:22;;;;;;;5.30;1.83;;;12.20;99.90;;;;;;4995834;28;20610;-69
2022/01/03 03:07:49;;;;;;;13.20;2.80;;;12.20;99.90;;;;;;4994728;28;20671;-71
2022/01/03 03:10:21;;;;;;;10.27;2.33;;;12.10;99.90;;;;;;4994910;28;20626;-71
2022/01/03 03:12:47;;;;;;;10.43;2.20;;;12.10;99.90;;;;;;4995032;28;20614;-70
2022/01/03 03:15:16;;;;;;;8.15;2.30;;;12.20;99.90;;;;;;4994070;28;20617;-70
2022/01/03 03:17:44;;;;;;;4.20;1.97;;;12.20;99.90;;;;;;4993976;28;20237;-70
2022/01/03 03:20:16;;;;;;;6.30;1.63;;;12.20;99.90;;;;;;4994782;28;20648;-70
2022/01/03 03:22:43;;;;;;;5.07;1.80;;;12.10;99.90;;;;;;4994268;28;21005;-69
2022/01/03 03:25:15;;;;;;;12.05;2.53;;;11.90;99.90;;;;;;4993576;28;20596;-69
2022/01/03 03:27:46;;;;;;;7.70;1.67;;;11.70;99.90;;;;;;4994966;28;20190;-69
2022/01/03 03:30:21;;;;;;;3.70;1.43;;;11.60;99.90;;;;;;4994805;28;20597;-70
2022/01/03 03:32:51;;;;;;;7.65;1.90;;;11.40;99.90;;;;;;4994602;28;21226;-70
2022/01/03 03:35:18;;;;;;;7.28;1.50;;;11.20;99.90;;;;;;4995100;28;20653;-69
2022/01/03 03:37:45;;;;;;;8.63;2.75;;;11.20;99.90;;;;;;4994560;28;20273;-70
2022/01/03 03:40:11;;;;;;;6.60;2.30;;;11.10;99.90;;;;;;4994817;28;20203;-70
2022/01/03 03:42:39;;;;;;;2.85;1.58;;;11.10;99.90;;;;;;4995125;28;20203;-70
2022/01/03 03:45:07;;;;;;;3.65;1.55;;;11.10;99.90;;;;;;4994423;28;20207;-69
2022/01/03 03:47:34;;;;;;;6.00;2.58;;;11.00;99.90;;;;;;4994272;28;20218;-70
2022/01/03 03:50:01;;;;;;;3.95;2.30;;;11.00;99.90;;;;;;4994560;28;20735;-70
2022/01/03 03:52:27;;;;;;;5.28;2.15;;;10.90;99.90;;;;;;4994596;28;20264;-70
2022/01/03 03:54:53;;;;;;;4.65;2.08;;;11.00;99.90;;;;;;4977402;28;20222;-70
2022/01/03 03:57:20;;;;;;;4.85;2.50;;;10.90;99.90;;;;;;4994941;28;20226;-70
2022/01/03 03:59:46;;;;;;;5.30;1.98;;;10.90;99.90;;;;;;4995086;28;20206;-69
2022/01/03 04:02:13;;;;;;;11.45;2.42;;;10.90;99.90;;;;;;4994997;28;20202;-70
2022/01/03 04:04:39;;;;;;;4.85;2.20;;;10.90;99.90;;;;;;4994553;28;20206;-70
2022/01/03 04:07:07;;;;;;;7.15;2.65;;;10.90;99.90;;;;;;4994136;28;20226;-70
2022/01/03 04:09:33;;;;;;;11.30;2.80;;;11.00;99.90;;;;;;4993001;28;20728;-70
2022/01/03 04:12:00;;;;;;;10.43;2.35;;;10.90;99.90;;;;;;4994316;28;20313;-69
2022/01/03 04:14:26;;;;;;;8.95;2.28;;;11.00;99.90;;;;;;4995053;28;20213;-70
2022/01/03 04:16:53;;;;;;;9.23;2.35;;;10.90;99.90;;;;;;4995159;28;20217;-70
2022/01/03 04:19:19;;;;;;;5.05;2.22;;;10.90;99.90;;;;;;4994401;28;20201;-70
2022/01/03 04:21:46;;;;;;;4.30;1.95;;;11.00;99.90;;;;;;4994939;28;20223;-69
2022/01/03 04:24:13;;;;;;;7.63;2.67;;;11.00;99.90;;;;;;4994450;28;20214;-69
2022/01/03 04:26:40;;;;;;;6.93;1.73;;;11.00;99.90;;;;;;4993997;28;20202;-70
2022/01/03 04:29:07;;;;;;;5.53;2.15;;;11.00;99.90;;;;;;4995598;28;20211;-69
2022/01/03 04:31:33;;;;;;;7.32;2.20;;;11.10;99.90;;;;;;4998105;28;20210;-70
2022/01/03 04:34:00;;;;;;;6.10;2.40;;;11.00;99.90;;;;;;4997680;28;20666;-69
2022/01/03 04:36:27;;;;;;;8.70;2.20;;;10.90;99.90;;;;;;4998057;28;20199;-70
2022/01/03 04:38:54;;;;;;;10.20;2.55;;;10.90;99.90;;;;;;4998037;28;20269;-70
2022/01/03 04:41:21;;;;;;;7.15;2.65;;;10.90;99.90;;;;;;4998114;28;20337;-70
2022/01/03 04:43:47;;;;;;;4.20;1.83;;;10.90;99.90;;;;;;4998298;28;20206;-70
2022/01/03 04:46:13;;;;;;;11.20;2.55;;;10.90;99.90;;;;;;4997388;28;20256;-70
2022/01/03 04:48:41;;;;;;;6.68;2.35;;;10.90;99.90;;;;;;4997881;28;20209;-70
2022/01/03 04:51:08;;;;;;;6.22;2.10;;;10.90;99.90;;;;;;4997506;28;20653;-69
2022/01/03 04:53:39;;;;;;;7.25;1.95;;;10.80;99.90;;;;;;4997554;28;20210;-69
2022/01/03 04:56:11;;;;;;;8.73;1.73;;;10.80;99.90;;;;;;4996297;28;20199;-70
2022/01/03 04:58:38;;;;;;;6.28;2.08;;;10.80;99.90;;;;;;4997021;28;20227;-69
2022/01/03 05:01:06;;;;;;;6.43;2.35;;;10.80;99.90;;;;;;4979646;28;20208;-71
2022/01/03 05:03:33;;;;;;;8.75;2.22;;;10.80;99.90;;;;;;4997221;28;20276;-69
2022/01/03 05:06:01;;;;;;;8.63;3.65;;;10.70;99.90;;;;;;4996553;28;20272;-69
2022/01/03 05:08:32;;;;;;;8.55;2.42;;;10.70;99.90;;;;;;4997184;28;20210;-69
2022/01/03 05:11:00;;;;;;;3.97;1.88;;;10.70;99.90;;;;;;4996667;28;20205;-70
2022/01/03 05:13:29;;;;;;;12.05;2.45;;;10.70;99.90;;;;;;4996775;28;20206;-69
2022/01/03 05:15:56;;;;;;;6.43;2.35;;;10.70;99.90;;;;;;4997330;28;20210;-70
2022/01/03 05:18:23;;;;;;;10.98;2.83;;;10.80;99.90;;;;;;4996651;28;20226;-71
2022/01/03 05:20:49;;;;;;;6.80;2.15;;;10.80;99.90;;;;;;4996626;28;20230;-70
2022/01/03 05:23:16;;;;;;;12.40;2.10;;;11.00;99.90;;;;;;4997321;28;20189;-70
2022/01/03 05:25:43;;;;;;;6.38;3.72;;;11.10;99.90;;;;;;4996986;28;20705;-70
2022/01/03 05:28:10;;;;;;;5.43;2.53;;;11.10;99.90;;;;;;4997019;28;20633;-70
2022/01/03 05:30:37;;;;;;;7.07;2.30;;;11.10;99.90;;;;;;4996287;28;20206;-70
2022/01/03 05:33:03;;;;;;;8.70;1.45;;;11.10;99.90;;;;;;4996617;28;20631;-70
2022/01/03 05:35:30;;;;;;;9.00;2.70;;;11.10;99.90;;;;;;4996810;28;20210;-70
2022/01/03 05:37:56;;;;;;;4.63;1.65;;;11.00;99.90;;;;;;4996753;28;20229;-70
2022/01/03 05:40:24;;;;;;;9.20;1.95;;;10.60;99.90;;;;;;4995610;28;20202;-70
2022/01/03 05:42:51;;;;;;;7.47;1.55;;;10.40;99.90;;;;;;4996425;28;20203;-71
2022/01/03 05:45:18;;;;;;;9.05;2.17;;;10.30;99.90;;;;;;4996458;28;20541;-71
2022/01/03 05:47:46;;;;;;;7.55;2.47;;;10.20;99.90;;;;;;4996120;28;20567;-71
2022/01/03 05:50:14;;;;;;;9.38;2.20;;;10.40;99.90;;;;;;4996420;28;20622;-71
2022/01/03 05:52:41;;;;;;;8.07;2.08;;;10.70;99.90;;;;;;4996619;28;20210;-71
2022/01/03 05:55:08;;;;;;;8.43;2.80;;;10.70;99.90;;;;;;4979735;28;20256;-70
2022/01/03 05:57:35;;;;;;;9.52;2.10;;;10.80;99.90;;;;;;4996212;28;20700;-71
2022/01/03 06:00:03;;;;;;;8.70;2.05;;;10.60;99.90;;;;;;4996100;28;20218;-71
2022/01/03 06:02:35;;;;;;;7.47;1.75;;;10.30;99.90;;;;;;4996708;28;20260;-71
2022/01/03 06:05:05;;;;;;;4.10;1.90;;;10.20;99.90;;;;;;4996467;28;20729;-70
2022/01/03 06:07:31;;;;;;;2.20;1.65;;;10.10;99.90;;;;;;4996152;28;20231;-71
2022/01/03 06:09:58;;;;;;;4.60;2.80;;;10.00;99.90;;;;;;4995991;28;20662;-71
2022/01/03 06:12:24;;;;;;;10.93;2.15;;;10.00;99.90;;;;;;4978995;28;20206;-71
2022/01/03 06:14:51;;;;;;;7.90;3.58;;;10.00;99.90;;;;;;4996789;28;20260;-71
2022/01/03 06:17:19;;;;;;;4.10;3.00;;;9.90;99.90;;;;;;4996636;28;20252;-70
2022/01/03 06:19:45;;;;;;;7.28;2.45;;;9.90;99.90;;;;;;4996532;28;20207;-71
2022/01/03 06:22:13;;;;;;;3.70;1.73;;;10.00;99.90;;;;;;4995859;28;20227;-71
2022/01/03 06:24:40;;;;;;;6.03;2.15;;;10.00;99.90;;;;;;4995497;28;20670;-71
2022/01/03 06:27:07;;;;;;;6.30;2.22;;;10.30;99.90;;;;;;4995275;28;20670;-71
2022/01/03 06:29:34;;;;;;;6.63;1.80;;;10.30;99.90;;;;;;4994047;28;20198;-71
2022/01/03 06:32:01;;;;;;;5.50;2.00;;;10.20;99.90;;;;;;4996237;28;20214;-71
2022/01/03 06:34:27;;;;;;;7.18;1.83;;;10.10;99.90;;;;;;4995845;28;20666;-71
2022/01/03 06:36:54;;;;;;;5.65;1.95;;;10.10;99.90;;;;;;4995937;28;20218;-71
2022/01/03 06:39:20;;;;;;;9.18;2.50;;;10.10;99.90;;;;;;4995627;28;20690;-71
2022/01/03 06:41:47;;;;;;;7.75;2.00;;;10.10;99.90;;;;;;4995806;28;20669;-71
2022/01/03 06:44:14;;;;;;;2.58;1.73;;;10.20;99.90;;;;;;4995410;28;20225;-71
2022/01/03 06:46:40;;;;;;;7.13;2.10;;;10.20;99.90;;;;;;4995357;28;20198;-71
2022/01/03 06:49:07;;;;;;;4.15;2.10;;;10.20;99.90;;;;;;4995965;28;20217;-71
2022/01/03 06:51:34;;;;;;;8.63;2.65;;;10.20;99.90;;;;;;4995012;28;20265;-70
2022/01/03 06:54:06;;;;;;;9.50;2.50;;;10.20;99.90;;;;;;4996118;28;20210;-70
2022/01/03 06:56:34;;;;;;;3.75;1.70;;;10.30;99.90;;;;;;4995402;28;20602;-70
2022/01/03 06:59:00;;;;;;;7.63;2.35;;;10.30;99.90;;;;;;4996027;28;20214;-70
2022/01/03 07:01:27;;;;;;;15.65;2.28;;;10.30;99.90;;;;;;4995226;28;20218;-70
2022/01/03 07:03:53;;;;;;;11.40;2.20;;;10.30;99.90;;;;;;4996851;28;20560;-70
2022/01/03 07:06:20;;;;;;;10.65;2.10;;;10.40;99.90;;;;;;4994844;28;20231;-71
2022/01/03 07:08:46;;;;;;;5.32;1.80;;;10.40;99.90;;;;;;4996066;28;20577;-71
2022/01/03 07:11:12;;;;;;;7.75;1.90;;;10.40;99.90;;;;;;4996998;28;20582;-70
2022/01/03 07:13:49;;;;;;;6.88;2.47;;;10.40;99.90;;;;;;4996816;28;20202;-70
2022/01/03 07:19:03;;;;;;;9.23;3.13;;;10.40;99.90;;;;;;4997483;28;20210;-69
2022/01/03 07:21:33;;;;;;;10.85;2.67;;;10.40;99.90;;;;;;4998595;28;20368;-69
2022/01/03 07:23:59;;;;;;;10.63;2.58;;;10.30;99.90;;;;;;4998539;28;20281;-70
2022/01/03 07:26:27;;;;;;;6.32;2.05;;;10.30;99.90;;;;;;4998392;28;20285;-70
2022/01/03 07:28:54;;;;;;;9.80;2.50;;;10.30;99.90;;;;;;4994212;28;20202;-69
2022/01/03 07:31:21;;;;;;;4.97;1.48;;;10.20;99.90;;;;;;4995849;28;20680;-70
2022/01/03 07:33:47;;;;;;;5.97;1.75;;;10.10;99.90;;;;;;4993915;28;20210;-70
2022/01/03 07:36:15;;;;;;;6.57;2.17;;;9.90;99.90;;;;;;4993775;28;20229;-70
2022/01/03 07:38:46;;;;;;;8.13;1.77;;;9.80;99.90;;;;;;4995483;28;20233;-70
2022/01/03 07:41:12;;;;;;;5.88;1.92;;;9.70;99.90;;;;;;4996156;28;20577;-70
2022/01/03 07:43:39;;;;;;;8.77;2.40;;;9.70;99.90;;;;;;4996307;28;20297;-70
2022/01/03 07:46:05;;;;;;;10.68;2.78;;;9.60;99.90;;;;;;4996023;28;20564;-70
2022/01/03 07:48:32;;;;;;;5.68;2.70;;;9.60;99.90;;;;;;4978040;28;20571;-70
2022/01/03 07:50:58;;;;;;;11.02;2.70;;;9.60;99.90;;;;;;4995477;28;20202;-70
2022/01/03 07:53:24;;;;;;;7.47;3.28;;;9.60;99.90;;;;;;4977793;28;20249;-70
2022/01/03 07:55:51;;;;;;;7.82;2.85;;;9.60;99.90;;;;;;4993756;28;20202;-70
2022/01/03 07:58:18;;;;;;;10.00;3.47;;;9.60;99.90;;;;;;4995014;28;20223;-70
2022/01/03 08:00:47;;;;;;;10.70;2.95;;;9.70;99.90;;;;;;4994748;28;20198;-70
2022/01/03 08:03:13;;;;;;;8.63;2.50;;;9.70;99.90;;;;;;4995029;28;20206;-69
2022/01/03 08:05:40;;;;;;;10.52;2.55;;;9.70;99.90;;;;;;4998450;28;20689;-70
2022/01/03 08:08:09;;;;;;;11.18;2.90;;;9.80;99.90;;;;;;4999364;28;20264;-69
2022/01/03 08:10:37;;;;;;;5.90;2.35;;;9.80;99.90;;;;;;4999599;28;20206;-69
2022/01/03 08:13:03;;;;;;;12.68;2.60;;;9.90;99.90;;;;;;4998871;28;20203;-69
2022/01/03 08:15:30;;;;;;;6.40;2.35;;;9.90;99.90;;;;;;4998930;28;20203;-70
2022/01/03 08:17:56;;;;;;;8.55;2.22;;;10.00;99.90;;;;;;4999832;28;20254;-69
2022/01/03 08:20:24;;;;;;;6.05;1.92;;;10.00;99.90;;;;;;4999383;28;20199;-69
2022/01/03 08:22:50;;;;;;;10.82;2.45;;;10.00;99.90;;;;;;4959885;28;20614;-69
2022/01/03 08:25:17;;;;;;;3.83;1.90;;;10.10;99.90;;;;;;4961445;29;20199;-69
2022/01/03 08:27:43;;;;;;;5.32;2.45;;;10.10;99.90;;;;;;4976918;28;20247;-69
2022/01/03 08:30:10;;;;;;;7.80;3.08;;;10.10;99.90;;;;;;4962312;28;20288;-70
2022/01/03 08:32:36;;;;;;;6.82;2.25;;;10.10;99.90;;;;;;4962446;28;20267;-69
2022/01/03 08:35:03;;;;;;;7.68;2.40;;;10.20;99.90;;;;;;4961701;28;20208;-69
2022/01/03 08:37:29;;;;;;;5.35;1.98;;;10.20;99.90;;;;;;4977093;28;20643;-69
2022/01/03 08:39:57;;;;;;;8.38;3.13;;;10.20;99.90;;;;;;4963003;28;20606;-69
2022/01/03 08:42:25;;;;;;;7.82;2.00;;;10.30;99.90;;;;;;4964144;28;20200;-69
2022/01/03 08:44:51;;;;;;;9.88;2.63;;;10.30;99.90;;;;;;4964531;28;20212;-69
2022/01/03 08:47:18;;;;;;;10.23;2.55;;;10.40;99.90;;;;;;4962042;28;20215;-69
2022/01/03 08:49:44;;;;;;;7.30;2.60;;;10.50;99.90;;;;;;4963041;28;20208;-69
2022/01/03 08:52:11;;;;;;;10.30;2.75;;;10.50;99.90;;;;;;4961358;28;20263;-69
2022/01/03 08:54:37;;;;;;;14.13;2.58;;;10.60;99.90;;;;;;4960576;28;20204;-69
2022/01/03 08:57:04;;;;;;;12.63;2.63;;;10.70;99.90;;;;;;4962159;28;20230;-69
2022/01/03 08:59:30;;;;;;;9.52;2.55;;;10.70;99.90;;;;;;4962042;28;20232;-70
2022/01/03 09:01:56;;;;;;;7.32;1.95;;;10.70;99.90;;;;;;4961058;28;20204;-68
2022/01/03 09:04:23;;;;;;;8.50;3.28;;;10.80;99.90;;;;;;4961136;28;20211;-68
2022/01/03 09:06:51;;;;;;;9.25;3.20;;;10.80;99.90;;;;;;4960584;28;20275;-68
2022/01/03 09:09:18;;;;;;;14.60;2.80;;;10.90;99.90;;;;;;4960407;28;20688;-68
2022/01/03 09:11:45;;;;;;;8.48;2.60;;;10.90;99.90;;;;;;4960338;28;20266;-68
2022/01/03 09:14:11;;;;;;;10.35;2.45;;;10.90;99.90;;;;;;4960298;29;20219;-69
2022/01/03 09:16:38;;;;;;;7.55;2.28;;;10.90;99.90;;;;;;4962129;28;20347;-68
2022/01/03 09:19:04;;;;;;;8.35;2.70;;;10.90;99.90;;;;;;4961745;28;20278;-69
2022/01/03 09:21:31;;;;;;;11.57;2.83;;;10.90;99.90;;;;;;4979359;28;20238;-69
2022/01/03 09:29:27;;;;;;;9.32;2.55;;;11.00;99.90;;;;;;4996226;28;20191;-69
2022/01/03 09:31:54;;;;;;;14.70;2.35;;;11.00;99.90;;;;;;4996115;28;20210;-69
2022/01/03 09:34:20;;;;;;;6.57;2.10;;;11.10;99.90;;;;;;4996749;28;20356;-69
2022/01/03 09:36:47;;;;;;;8.43;2.22;;;11.10;99.90;;;;;;4997441;28;20210;-69
2022/01/03 09:39:13;;;;;;;10.18;2.10;;;11.20;99.90;;;;;;4995981;28;20222;-69
2022/01/03 09:41:49;;;;;;;17.33;3.13;;;11.20;99.90;;;;;;4979527;28;20225;-69
2022/01/03 09:44:16;;;;;;;8.35;2.25;;;11.20;99.90;;;;;;4995681;28;20609;-69
2022/01/03 09:46:43;;;;;;;7.68;2.45;;;11.30;99.90;;;;;;4997670;28;20206;-69
2022/01/03 09:49:11;;;;;;;13.43;2.25;;;11.30;99.90;;;;;;4996686;28;20230;-69
2022/01/03 09:51:39;;;;;;;13.43;2.97;;;11.40;99.90;;;;;;4997040;28;20557;-68
2022/01/03 09:54:08;;;;;;;8.85;2.35;;;11.40;99.90;;;;;;4997812;28;20562;-69
2022/01/03 09:56:37;;;;;;;7.82;2.70;;;11.40;99.90;;;;;;4996458;28;20213;-69
2022/01/03 09:59:05;;;;;;;6.50;2.70;;;11.40;99.90;;;;;;4997674;28;20694;-69
2022/01/03 10:01:33;;;;;;;15.30;2.38;;;11.50;99.90;;;;;;4998220;28;20202;-69
2022/01/03 10:04:00;;;;;;;8.88;2.78;;;11.50;99.90;;;;;;4997672;28;20198;-71
2022/01/03 10:06:27;;;;;;;8.63;2.30;;;11.40;99.90;;;;;;4997880;28;20218;-68
2022/01/03 10:08:54;;;;;;;13.40;3.22;;;11.50;99.90;;;;;;4997749;28;20310;-68
2022/01/03 10:11:22;;;;;;;9.88;2.38;;;11.50;99.90;;;;;;4997618;28;20206;-70
2022/01/03 10:13:49;;;;;;;6.90;1.77;;;11.50;99.90;;;;;;4997632;28;20202;-69
2022/01/03 10:16:16;;;;;;;5.38;1.90;;;11.50;99.90;;;;;;4998118;28;20198;-69
2022/01/03 10:18:46;;;;;;;10.02;2.13;;;11.50;99.90;;;;;;4997416;28;20233;-69
2022/01/03 10:21:12;;;;;;;6.70;2.60;;;11.60;99.90;;;;;;4956601;28;1067276;-69
2022/01/03 10:23:55;;;;;;;6.63;3.03;;;11.60;99.90;;;;;;4978420;28;20659;-69
2022/01/03 10:26:21;;;;;;;6.20;2.40;;;11.60;99.90;;;;;;4979090;28;20644;-70
2022/01/03 10:28:47;;;;;;;6.57;2.55;;;11.60;99.90;;;;;;4978748;28;20199;-69
2022/01/03 10:31:20;;;;;;;10.40;2.78;;;11.60;99.90;;;;;;4980398;28;20203;-69
2022/01/03 10:34:03;;;;;;;7.47;2.25;;;11.70;99.90;;;;;;4980268;28;20595;-69
2022/01/03 10:36:31;;;;;;;10.75;2.40;;;11.70;99.90;;;;;;4980062;28;20191;-70
2022/01/03 10:39:00;;;;;;;7.40;2.20;;;11.70;99.90;;;;;;4980425;28;20585;-69
2022/01/03 10:41:26;;;;;;;6.03;2.67;;;11.70;99.90;;;;;;4982063;28;20623;-70
2022/01/03 10:43:58;;;;;;;9.68;1.98;;;11.80;99.90;;;;;;4981431;28;20623;-70
2022/01/03 10:46:30;;;;;;;9.43;2.17;;;11.80;99.90;;;;;;4981095;28;20659;-70
2022/01/03 10:49:09;;;;;;;11.53;3.50;;;11.90;99.90;;;;;;4978515;28;20207;-70
2022/01/03 10:51:36;;;;;;;12.23;2.50;;;11.90;99.90;;;;;;4977992;28;20599;-69
2022/01/03 10:54:08;;;;;;;8.87;2.70;;;11.90;99.90;;;;;;4978773;28;20622;-70
2022/01/03 10:56:39;;;;;;;6.10;2.30;;;11.90;99.90;;;;;;4978470;28;20627;-69
2022/01/03 10:59:14;;;;;;;8.63;2.60;;;11.90;99.90;;;;;;4978034;28;20226;-69
2022/01/03 11:01:46;;;;;;;4.72;2.80;;;11.90;99.90;;;;;;4976407;28;20626;-69
2022/01/03 11:05:11;;;;;;;8.33;2.50;;;11.90;99.90;;;;;;4976077;28;20210;-69
2022/01/03 11:13:12;;;;;;;9.00;2.57;;;12.00;99.90;;;;;;4978700;28;20195;-70
2022/01/03 11:15:52;;;;;;;9.63;2.80;;;12.00;99.90;;;;;;4977193;28;20626;-70
2022/01/03 11:18:26;;;;;;;6.25;1.65;;;12.00;99.90;;;;;;4978299;28;21356;-70
2022/01/03 11:21:11;;;;;;;11.25;2.67;;;12.10;99.90;;;;;;4982931;28;20225;-69
2022/01/03 11:23:39;;;;;;;12.40;3.17;;;12.10;99.90;;;;;;4998329;28;20213;-70
2022/01/03 11:26:11;;;;;;;3.43;2.20;;;12.10;99.90;;;;;;4996650;28;20626;-70
2022/01/03 11:28:39;;;;;;;5.53;1.97;;;12.20;99.90;;;;;;4998300;28;20597;-70
2022/01/03 11:31:09;;;;;;;7.70;2.10;;;12.20;99.90;;;;;;4996395;28;21255;-70
2022/01/03 11:33:36;;;;;;;10.65;2.15;;;12.20;99.90;;;;;;4997637;28;20618;-70
2022/01/03 11:36:04;;;;;;;7.70;2.97;;;12.20;99.90;;;;;;4996955;28;20242;-70
2022/01/03 11:38:33;;;;;;;7.07;2.37;;;12.20;99.90;;;;;;4997152;28;20621;-70
2022/01/03 11:41:03;;;;;;;7.83;2.67;;;12.20;99.90;;;;;;4997659;28;20621;-70
2022/01/03 11:43:30;;;;;;;8.70;2.30;;;12.20;99.90;;;;;;4996060;28;20622;-70
2022/01/03 11:45:57;;;;;;;7.20;2.80;;;12.20;99.90;;;;;;4997219;28;21104;-70
2022/01/03 11:48:26;;;;;;;7.30;2.23;;;12.20;99.90;;;;;;4996597;28;20610;-69
2022/01/03 11:50:54;;;;;;;10.60;2.50;;;12.20;99.90;;;;;;4997205;28;21003;-70
2022/01/03 11:53:21;;;;;;;5.77;1.90;;;12.20;99.90;;;;;;4998449;28;20658;-70
2022/01/03 11:55:54;;;;;;;6.20;1.97;;;12.20;99.90;;;;;;4997376;28;20628;-70
2022/01/03 11:59:05;;;;;;;7.83;2.53;;;12.10;99.90;;;;;;4999520;28;20654;-69
2022/01/03 12:04:40;;;;;;;11.83;2.30;;;12.20;99.90;;;;;;4999787;28;20206;-70
2022/01/03 12:07:10;;;;;;;4.00;1.63;;;12.30;99.90;;;;;;4999919;28;20653;-70
2022/01/03 12:09:39;;;;;;;10.50;2.33;;;12.30;99.90;;;;;;4999571;28;20645;-71
2022/01/03 12:12:07;;;;;;;10.40;2.43;;;12.30;99.90;;;;;;5000635;28;20610;-70
2022/01/03 12:14:39;;;;;;;8.37;2.87;;;12.30;99.90;;;;;;4998551;28;20613;-70
2022/01/03 12:17:07;;;;;;;5.30;1.90;;;12.40;99.90;;;;;;4998541;28;20668;-70
2022/01/03 12:19:35;;;;;;;5.50;2.20;;;12.40;99.90;;;;;;4999839;28;20641;-70
2022/01/03 12:22:34;;;;;;;5.07;2.30;;;12.30;99.90;;;;;;4999592;28;20647;-70
2022/01/03 12:25:03;;;;;;;2.75;1.77;;;12.40;99.90;;;;;;4995098;28;20603;-70
2022/01/03 12:27:39;;;;;;;11.37;2.47;;;12.40;99.90;;;;;;4980504;28;20710;-70
2022/01/03 12:30:18;;;;;;;6.70;2.30;;;12.40;99.90;;;;;;4998919;28;20585;-70
2022/01/03 12:33:07;;;;;;;9.07;2.03;;;12.30;99.90;;;;;;4997993;28;21089;-69
2022/01/03 12:35:45;;;;;;;8.10;2.60;;;12.30;99.90;;;;;;4999008;28;20621;-70
2022/01/03 12:38:14;;;;;;;7.27;2.50;;;12.30;99.90;;;;;;4998072;28;20618;-71
2022/01/03 12:40:48;;;;;;;6.77;2.60;;;12.40;99.90;;;;;;4997773;28;20751;-70
2022/01/03 12:43:16;;;;;;;7.73;1.83;;;12.30;99.90;;;;;;4998136;28;20571;-70
2022/01/03 12:45:46;;;;;;;11.00;3.47;;;12.30;99.90;;;;;;4999954;28;20620;-69
2022/01/03 12:48:18;;;;;;;11.87;2.47;;;12.40;99.90;;;;;;4999081;28;20617;-70
2022/01/03 12:50:53;;;;;;;7.57;2.28;;;12.30;99.90;;;;;;5000126;28;20585;-69
2022/01/03 12:53:29;;;;;;;6.33;2.03;;;12.30;99.90;;;;;;5001653;28;20265;-69
2022/01/03 12:56:04;;;;;;;6.87;2.30;;;12.30;99.90;;;;;;5000769;28;20985;-69
2022/01/03 12:58:32;;;;;;;4.47;1.80;;;12.30;99.90;;;;;;5000599;28;20609;-69
2022/01/03 13:01:19;;;;;;;7.30;2.35;;;12.30;99.90;;;;;;5000303;28;20584;-69
2022/01/03 13:03:49;;;;;;;9.13;2.13;;;12.30;99.90;;;;;;4999757;28;20555;-69
2022/01/03 13:06:16;;;;;;;6.63;1.65;;;12.30;99.90;;;;;;4999398;28;20641;-69
2022/01/03 13:08:56;;;;;;;4.47;1.87;;;12.30;99.90;;;;;;4998995;28;20205;-70
2022/01/03 13:11:25;;;;;;;8.32;1.90;;;12.30;99.90;;;;;;4998675;28;20609;-69
2022/01/03 13:13:54;;;;;;;7.18;2.25;;;12.30;99.90;;;;;;5000473;28;20203;-69
2022/01/03 13:16:20;;;;;;;9.17;2.70;;;12.30;99.90;;;;;;4999534;28;20203;-69